Time,TemperatureF,DewpointF,PressureIn,WindDirection,WindDirectionDegrees,WindSpeedMPH,WindSpeedGustMPH,Humidity,HourlyPrecipIn,Conditions,Clouds,dailyrainin,SolarRadiationWatts/m^2,SoftwareType,DateUTC
2013-01-23 00:02:00,20.0,3.0,-100.00,NE,44,0.0,2.0,47,0.00,,,0.00,0.000000,,2013-01-23 06:02:00,
2013-01-23 00:12:00,20.0,3.0,-100.00,NE,44,0.0,2.0,47,0.00,,,0.00,0.000000,,2013-01-23 06:12:00,
2013-01-23 00:22:00,20.0,3.0,-100.00,NE,44,0.0,2.0,47,0.00,,,0.00,0.000000,,2013-01-23 06:22:00,
2013-01-23 00:32:00,20.0,3.0,-100.00,NE,44,0.0,2.0,47,0.00,,,0.00,0.000000,,2013-01-23 06:32:00,
2013-01-23 00:53:00,19.0,3.0,-100.00,East,85,2.0,2.0,50,0.00,,,0.00,0.000000,,2013-01-23 06:53:00,
2013-01-23 01:02:00,19.0,3.0,-100.00,East,85,2.0,2.0,50,0.00,,,0.00,0.000000,,2013-01-23 07:02:00,
2013-01-23 01:12:00,19.0,3.0,-100.00,East,85,2.0,2.0,50,0.00,,,0.00,0.000000,,2013-01-23 07:12:00,
2013-01-23 01:22:00,19.0,3.0,-100.00,East,85,2.0,2.0,50,0.00,,,0.00,0.000000,,2013-01-23 07:22:00,
2013-01-23 01:33:00,19.0,3.0,-100.00,East,85,2.0,2.0,50,0.00,,,0.00,0.000000,,2013-01-23 07:33:00,
2013-01-23 01:53:00,18.0,3.0,-100.00,ENE,71,1.0,3.0,52,0.00,,,0.00,0.000000,,2013-01-23 07:53:00,
2013-01-23 02:02:00,18.0,3.0,-100.00,ENE,71,1.0,3.0,52,0.00,,,0.00,0.000000,,2013-01-23 08:02:00,
2013-01-23 02:13:00,18.0,3.0,-100.00,ENE,71,1.0,3.0,52,0.00,,,0.00,0.000000,,2013-01-23 08:13:00,
2013-01-23 02:22:00,18.0,3.0,-100.00,ENE,71,1.0,3.0,52,0.00,,,0.00,0.000000,,2013-01-23 08:22:00,
2013-01-23 02:33:00,18.0,3.0,-100.00,ENE,71,1.0,3.0,52,0.00,,,0.00,0.000000,,2013-01-23 08:33:00,
2013-01-23 02:53:00,19.0,6.0,-100.00,East,80,2.0,3.0,56,0.00,,,0.00,0.000000,,2013-01-23 08:53:00,
2013-01-23 03:03:00,19.0,6.0,-100.00,East,80,2.0,3.0,56,0.00,,,0.00,0.000000,,2013-01-23 09:03:00,
2013-01-23 03:12:00,19.0,6.0,-100.00,East,80,2.0,3.0,56,0.00,,,0.00,0.000000,,2013-01-23 09:12:00,
2013-01-23 03:22:00,19.0,6.0,-100.00,East,80,2.0,3.0,56,0.00,,,0.00,0.000000,,2013-01-23 09:22:00,
2013-01-23 03:32:00,19.0,6.0,-100.00,East,80,2.0,3.0,56,0.00,,,0.00,0.000000,,2013-01-23 09:32:00,
2013-01-23 03:53:00,18.0,7.0,-100.00,East,91,2.0,4.0,61,0.00,,,0.00,0.000000,,2013-01-23 09:53:00,
2013-01-23 04:03:00,18.0,7.0,-100.00,East,91,2.0,4.0,61,0.00,,,0.00,0.000000,,2013-01-23 10:03:00,
2013-01-23 04:12:00,18.0,7.0,-100.00,East,91,2.0,4.0,61,0.00,,,0.00,0.000000,,2013-01-23 10:12:00,
2013-01-23 04:23:00,18.0,7.0,-100.00,East,91,2.0,4.0,61,0.00,,,0.00,0.000000,,2013-01-23 10:23:00,
2013-01-23 04:33:00,18.0,7.0,-100.00,East,91,2.0,4.0,61,0.00,,,0.00,0.000000,,2013-01-23 10:33:00,
2013-01-23 04:53:00,18.0,8.0,-100.00,SE,125,3.0,5.0,63,0.00,,,0.00,0.000000,,2013-01-23 10:53:00,
2013-01-23 05:02:00,18.0,8.0,-100.00,SE,125,3.0,5.0,63,0.00,,,0.00,0.000000,,2013-01-23 11:02:00,
2013-01-23 05:12:00,18.0,8.0,-100.00,SE,125,3.0,5.0,63,0.00,,,0.00,0.000000,,2013-01-23 11:12:00,
2013-01-23 05:23:00,18.0,8.0,-100.00,SE,125,3.0,5.0,63,0.00,,,0.00,0.000000,,2013-01-23 11:23:00,
2013-01-23 05:33:00,18.0,8.0,-100.00,SE,125,3.0,5.0,63,0.00,,,0.00,0.000000,,2013-01-23 11:33:00,
2013-01-23 05:53:00,19.0,7.0,-100.00,ESE,106,3.0,7.0,59,0.00,,,0.00,0.000000,,2013-01-23 11:53:00,
2013-01-23 06:03:00,19.0,7.0,-100.00,ESE,106,3.0,7.0,59,0.00,,,0.00,0.000000,,2013-01-23 12:03:00,
2013-01-23 06:12:00,19.0,7.0,-100.00,ESE,106,3.0,7.0,59,0.00,,,0.00,0.000000,,2013-01-23 12:12:00,
2013-01-23 06:22:00,19.0,7.0,-100.00,ESE,106,3.0,7.0,59,0.00,,,0.00,0.000000,,2013-01-23 12:22:00,
2013-01-23 06:33:00,19.0,7.0,-100.00,ESE,106,3.0,7.0,59,0.00,,,0.00,0.000000,,2013-01-23 12:33:00,
2013-01-23 06:53:00,19.0,8.0,-100.00,ESE,116,4.0,5.0,62,0.00,,,0.00,0.000000,,2013-01-23 12:53:00,
2013-01-23 07:04:00,19.0,8.0,-100.00,ESE,116,4.0,5.0,62,0.00,,,0.00,0.000000,,2013-01-23 13:04:00,
2013-01-23 07:13:00,19.0,8.0,-100.00,ESE,116,4.0,5.0,62,0.00,,,0.00,0.000000,,2013-01-23 13:13:00,
2013-01-23 07:23:00,19.0,8.0,-100.00,ESE,116,4.0,5.0,62,0.00,,,0.00,0.000000,,2013-01-23 13:23:00,
2013-01-23 07:33:00,19.0,8.0,-100.00,ESE,116,4.0,5.0,62,0.00,,,0.00,0.000000,,2013-01-23 13:33:00,
2013-01-23 07:53:00,20.0,10.0,-100.00,SE,127,3.0,5.0,65,0.00,,,0.00,17.000000,,2013-01-23 13:53:00,
2013-01-23 08:03:00,20.0,10.0,-100.00,SE,127,3.0,5.0,65,0.00,,,0.00,17.000000,,2013-01-23 14:03:00,
2013-01-23 08:12:00,20.0,10.0,-100.00,SE,127,3.0,5.0,65,0.00,,,0.00,17.000000,,2013-01-23 14:12:00,
2013-01-23 08:23:00,20.0,10.0,-100.00,SE,127,3.0,5.0,65,0.00,,,0.00,17.000000,,2013-01-23 14:23:00,
2013-01-23 08:33:00,20.0,10.0,-100.00,SE,127,3.0,5.0,65,0.00,,,0.00,17.000000,,2013-01-23 14:33:00,
2013-01-23 08:53:00,27.0,10.0,-100.00,SE,132,4.0,8.0,48,0.00,,,0.00,174.000000,,2013-01-23 14:53:00,
2013-01-23 09:03:00,27.0,10.0,-100.00,SE,132,4.0,8.0,48,0.00,,,0.00,174.000000,,2013-01-23 15:03:00,
2013-01-23 09:12:00,27.0,10.0,-100.00,SE,132,4.0,8.0,48,0.00,,,0.00,174.000000,,2013-01-23 15:12:00,
2013-01-23 09:23:00,27.0,10.0,-100.00,SE,132,4.0,8.0,48,0.00,,,0.00,174.000000,,2013-01-23 15:23:00,
2013-01-23 09:33:00,27.0,10.0,-100.00,SE,132,4.0,8.0,48,0.00,,,0.00,174.000000,,2013-01-23 15:33:00,
2013-01-23 10:03:00,33.0,10.0,-100.00,South,174,4.0,7.0,38,0.00,,,0.00,342.000000,,2013-01-23 16:03:00,
2013-01-23 10:12:00,33.0,10.0,-100.00,South,174,4.0,7.0,38,0.00,,,0.00,342.000000,,2013-01-23 16:12:00,
2013-01-23 10:23:00,33.0,10.0,-100.00,South,174,4.0,7.0,38,0.00,,,0.00,342.000000,,2013-01-23 16:23:00,
2013-01-23 10:33:00,33.0,10.0,-100.00,South,174,4.0,7.0,38,0.00,,,0.00,342.000000,,2013-01-23 16:33:00,
2013-01-23 11:03:00,39.0,14.0,-100.00,SSW,203,5.0,9.0,36,0.00,,,0.00,489.000000,,2013-01-23 17:03:00,
2013-01-23 11:12:00,39.0,14.0,-100.00,SSW,203,5.0,9.0,36,0.00,,,0.00,489.000000,,2013-01-23 17:12:00,
2013-01-23 11:23:00,39.0,14.0,-100.00,SSW,203,5.0,9.0,36,0.00,,,0.00,489.000000,,2013-01-23 17:23:00,
2013-01-23 11:33:00,39.0,14.0,-100.00,SSW,203,5.0,9.0,36,0.00,,,0.00,489.000000,,2013-01-23 17:33:00,
2013-01-23 12:03:00,42.0,18.0,-100.00,WSW,252,5.0,12.0,37,0.00,,,0.00,575.000000,,2013-01-23 18:03:00,
2013-01-23 12:12:00,42.0,18.0,-100.00,WSW,252,5.0,12.0,37,0.00,,,0.00,575.000000,,2013-01-23 18:12:00,
2013-01-23 12:23:00,42.0,18.0,-100.00,WSW,252,5.0,12.0,37,0.00,,,0.00,575.000000,,2013-01-23 18:23:00,
2013-01-23 12:33:00,42.0,18.0,-100.00,WSW,252,5.0,12.0,37,0.00,,,0.00,575.000000,,2013-01-23 18:33:00,
2013-01-23 13:03:00,46.0,22.0,-100.00,WSW,243,6.0,11.0,38,0.00,,,0.00,588.000000,,2013-01-23 19:03:00,
2013-01-23 13:13:00,46.0,22.0,-100.00,WSW,243,6.0,11.0,38,0.00,,,0.00,588.000000,,2013-01-23 19:13:00,
2013-01-23 13:23:00,46.0,22.0,-100.00,WSW,243,6.0,11.0,38,0.00,,,0.00,588.000000,,2013-01-23 19:23:00,
2013-01-23 13:33:00,46.0,22.0,-100.00,WSW,243,6.0,11.0,38,0.00,,,0.00,588.000000,,2013-01-23 19:33:00,
2013-01-23 14:03:00,48.0,24.0,-100.00,SW,236,6.0,16.0,38,0.00,,,0.00,571.000000,,2013-01-23 20:03:00,
2013-01-23 14:13:00,48.0,24.0,-100.00,SW,236,6.0,16.0,38,0.00,,,0.00,571.000000,,2013-01-23 20:13:00,
2013-01-23 14:23:00,48.0,24.0,-100.00,SW,236,6.0,16.0,38,0.00,,,0.00,571.000000,,2013-01-23 20:23:00,
2013-01-23 14:33:00,48.0,24.0,-100.00,SW,236,6.0,16.0,38,0.00,,,0.00,571.000000,,2013-01-23 20:33:00,
2013-01-23 14:54:00,50.0,26.0,-100.00,WSW,248,6.0,13.0,39,0.00,,,0.00,464.000000,,2013-01-23 20:54:00,
2013-01-23 15:03:00,50.0,26.0,-100.00,WSW,248,6.0,13.0,39,0.00,,,0.00,464.000000,,2013-01-23 21:03:00,
2013-01-23 15:12:00,50.0,26.0,-100.00,WSW,248,6.0,13.0,39,0.00,,,0.00,464.000000,,2013-01-23 21:12:00,
2013-01-23 15:23:00,50.0,26.0,-100.00,WSW,248,6.0,13.0,39,0.00,,,0.00,464.000000,,2013-01-23 21:23:00,
2013-01-23 15:33:00,50.0,26.0,-100.00,WSW,248,6.0,13.0,39,0.00,,,0.00,464.000000,,2013-01-23 21:33:00,
2013-01-23 15:53:00,49.0,27.0,-100.00,WSW,241,5.0,12.0,42,0.00,,,0.00,300.000000,,2013-01-23 21:53:00,
2013-01-23 16:02:00,49.0,27.0,-100.00,WSW,241,5.0,12.0,42,0.00,,,0.00,300.000000,,2013-01-23 22:02:00,
2013-01-23 16:12:00,49.0,27.0,-100.00,WSW,241,5.0,12.0,42,0.00,,,0.00,300.000000,,2013-01-23 22:12:00,
2013-01-23 16:23:00,49.0,27.0,-100.00,WSW,241,5.0,12.0,42,0.00,,,0.00,300.000000,,2013-01-23 22:23:00,
2013-01-23 16:33:00,49.0,27.0,-100.00,WSW,241,5.0,12.0,42,0.00,,,0.00,300.000000,,2013-01-23 22:33:00,
2013-01-23 17:03:00,48.0,29.0,-100.00,WSW,241,6.0,12.0,47,0.00,,,0.00,146.000000,,2013-01-23 23:03:00,
2013-01-23 17:12:00,48.0,29.0,-100.00,WSW,241,6.0,12.0,47,0.00,,,0.00,146.000000,,2013-01-23 23:12:00,
2013-01-23 17:23:00,48.0,29.0,-100.00,WSW,241,6.0,12.0,47,0.00,,,0.00,146.000000,,2013-01-23 23:23:00,
2013-01-23 17:33:00,48.0,29.0,-100.00,WSW,241,6.0,12.0,47,0.00,,,0.00,146.000000,,2013-01-23 23:33:00,
2013-01-23 18:03:00,44.0,29.0,-100.00,West,260,3.0,8.0,55,0.00,,,0.00,20.000000,,2013-01-24 00:03:00,
2013-01-23 18:12:00,44.0,29.0,-100.00,West,260,3.0,8.0,55,0.00,,,0.00,20.000000,,2013-01-24 00:12:00,
2013-01-23 18:22:00,44.0,29.0,-100.00,West,260,3.0,8.0,55,0.00,,,0.00,20.000000,,2013-01-24 00:22:00,
2013-01-23 18:32:00,44.0,29.0,-100.00,West,260,3.0,8.0,55,0.00,,,0.00,20.000000,,2013-01-24 00:32:00,
2013-01-23 19:03:00,41.0,29.0,-100.00,WSW,257,3.0,6.0,61,0.00,,,0.00,0.000000,,2013-01-24 01:03:00,
2013-01-23 19:12:00,41.0,29.0,-100.00,WSW,257,3.0,6.0,61,0.00,,,0.00,0.000000,,2013-01-24 01:12:00,
2013-01-23 19:23:00,41.0,29.0,-100.00,WSW,257,3.0,6.0,61,0.00,,,0.00,0.000000,,2013-01-24 01:23:00,
2013-01-23 19:33:00,41.0,29.0,-100.00,WSW,257,3.0,6.0,61,0.00,,,0.00,0.000000,,2013-01-24 01:33:00,
2013-01-23 20:02:00,41.0,29.0,-100.00,West,276,4.0,7.0,63,0.00,,,0.00,0.000000,,2013-01-24 02:02:00,
2013-01-23 20:12:00,41.0,29.0,-100.00,West,276,4.0,7.0,63,0.00,,,0.00,0.000000,,2013-01-24 02:12:00,
2013-01-23 20:22:00,41.0,29.0,-100.00,West,276,4.0,7.0,63,0.00,,,0.00,0.000000,,2013-01-24 02:22:00,
2013-01-23 20:33:00,41.0,29.0,-100.00,West,276,4.0,7.0,63,0.00,,,0.00,0.000000,,2013-01-24 02:33:00,
2013-01-23 21:02:00,40.0,30.0,-100.00,West,280,3.0,7.0,66,0.00,,,0.00,0.000000,,2013-01-24 03:02:00,
2013-01-23 21:12:00,40.0,30.0,-100.00,West,280,3.0,7.0,66,0.00,,,0.00,0.000000,,2013-01-24 03:12:00,
2013-01-23 21:22:00,40.0,30.0,-100.00,West,280,3.0,7.0,66,0.00,,,0.00,0.000000,,2013-01-24 03:22:00,
2013-01-23 21:33:00,40.0,30.0,-100.00,West,280,3.0,7.0,66,0.00,,,0.00,0.000000,,2013-01-24 03:33:00,
2013-01-23 21:53:00,36.0,29.0,-100.00,West,273,1.0,5.0,77,0.00,,,0.00,0.000000,,2013-01-24 03:53:00,
2013-01-23 22:02:00,36.0,29.0,-100.00,West,273,1.0,5.0,77,0.00,,,0.00,0.000000,,2013-01-24 04:02:00,
2013-01-23 22:12:00,36.0,29.0,-100.00,West,273,1.0,5.0,77,0.00,,,0.00,0.000000,,2013-01-24 04:12:00,
2013-01-23 22:22:00,36.0,29.0,-100.00,West,273,1.0,5.0,77,0.00,,,0.00,0.000000,,2013-01-24 04:22:00,
2013-01-23 22:32:00,36.0,29.0,-100.00,West,273,1.0,5.0,77,0.00,,,0.00,0.000000,,2013-01-24 04:32:00,
2013-01-23 23:03:00,35.0,30.0,-100.00,West,268,3.0,4.0,81,0.00,,,0.00,0.000000,,2013-01-24 05:03:00,
2013-01-23 23:12:00,35.0,30.0,-100.00,West,268,3.0,4.0,81,0.00,,,0.00,0.000000,,2013-01-24 05:12:00,
2013-01-23 23:22:00,35.0,30.0,-100.00,West,268,3.0,4.0,81,0.00,,,0.00,0.000000,,2013-01-24 05:22:00,
2013-01-23 23:33:00,35.0,30.0,-100.00,West,268,3.0,4.0,81,0.00,,,0.00,0.000000,,2013-01-24 05:33:00,